createdAt,value
2023-08-13T00:00:05.543Z,101102.16
2023-08-13T00:02:32.785Z,101103.97
2023-08-13T00:05:00.033Z,101112.06
2023-08-13T00:07:27.265Z,101102.13
2023-08-13T00:09:54.456Z,101102.09
2023-08-13T00:12:23.103Z,101100.41
2023-08-13T00:14:50.319Z,101102.47
2023-08-13T00:17:17.510Z,101100.69
2023-08-13T00:19:44.713Z,101103.09
2023-08-13T00:22:12.117Z,101111.78
2023-08-13T00:24:39.379Z,101111.16
2023-08-13T00:27:06.603Z,101112.59
2023-08-13T00:29:34.395Z,101107.41
2023-08-13T00:32:01.707Z,101113.75
2023-08-13T00:34:28.978Z,101117.94
2023-08-13T00:36:56.182Z,101118.19
2023-08-13T00:39:23.587Z,101116.94
2023-08-13T00:41:50.848Z,101120.56
2023-08-13T00:44:18.563Z,101118.72
2023-08-13T00:46:46.915Z,101118.72
2023-08-13T00:49:15.850Z,101123.97
2023-08-13T00:51:44.045Z,101125.06
2023-08-13T00:54:11.617Z,101126.47
2023-08-13T00:56:41.999Z,101133.50
2023-08-13T00:59:09.861Z,101128.66
2023-08-13T01:01:37.233Z,101133.50
2023-08-13T01:04:04.997Z,101133.00
2023-08-13T01:06:50.736Z,101124.59
2023-08-13T01:09:42.999Z,101124.47
2023-08-13T01:12:19.967Z,101125.94
2023-08-13T01:15:08.587Z,101133.88
2023-08-13T01:17:38.490Z,101125.97
2023-08-13T01:20:08.651Z,101133.03
2023-08-13T01:22:46.029Z,101133.63
2023-08-13T01:25:15.823Z,101125.69
2023-08-13T01:27:59.400Z,101134.63
2023-08-13T01:30:51.156Z,101131.38
2023-08-13T01:33:28.203Z,101128.88
2023-08-13T01:35:59.352Z,101129.09
2023-08-13T01:38:27.404Z,101134.31
2023-08-13T01:40:54.710Z,101124.22
2023-08-13T01:43:21.905Z,101136.63
2023-08-13T01:45:49.164Z,101136.28
2023-08-13T01:48:16.416Z,101135.53
2023-08-13T01:50:43.821Z,101137.44
2023-08-13T01:53:11.042Z,101134.91
2023-08-13T01:55:38.376Z,101146.75
2023-08-13T01:58:05.611Z,101142.34
2023-08-13T02:00:32.883Z,101142.41
2023-08-13T02:03:00.145Z,101143.03
2023-08-13T02:05:27.413Z,101145.41
2023-08-13T02:07:55.048Z,101141.69
2023-08-13T02:10:22.255Z,101141.00
2023-08-13T02:12:49.481Z,101139.75
2023-08-13T02:15:16.744Z,101140.38
2023-08-13T02:17:43.968Z,101146.88
2023-08-13T02:20:12.339Z,101142.69
2023-08-13T02:22:39.620Z,101140.13
2023-08-13T02:25:07.517Z,101143.81
2023-08-13T02:27:34.714Z,101136.16
2023-08-13T02:30:03.805Z,101137.72
2023-08-13T02:32:31.061Z,101135.06
2023-08-13T02:34:58.389Z,101130.91
2023-08-13T02:37:25.586Z,101134.22
2023-08-13T02:39:52.845Z,101132.63
2023-08-13T02:42:20.056Z,101137.44
2023-08-13T02:44:47.257Z,101143.50
2023-08-13T02:47:15.564Z,101138.78
2023-08-13T02:49:42.750Z,101142.72
2023-08-13T02:52:10.188Z,101142.72
2023-08-13T02:54:37.459Z,101147.16
2023-08-13T02:57:04.902Z,101138.31
2023-08-13T02:59:32.097Z,101135.78
2023-08-13T03:01:59.323Z,101139.28
2023-08-13T03:04:26.558Z,101130.88
2023-08-13T03:06:53.884Z,101142.78
2023-08-13T03:09:23.547Z,101139.75
2023-08-13T03:11:50.786Z,101142.56
2023-08-13T03:14:18.112Z,101147.94
2023-08-13T03:16:45.356Z,101150.34
2023-08-13T03:19:12.559Z,101148.47
2023-08-13T03:21:39.830Z,101155.38
2023-08-13T03:24:07.458Z,101164.31
2023-08-13T03:26:34.691Z,101151.81
2023-08-13T03:29:01.913Z,101155.88
2023-08-13T03:31:29.131Z,101151.59
2023-08-13T03:33:56.355Z,101157.84
2023-08-13T03:36:23.543Z,101157.94
2023-08-13T03:38:50.789Z,101157.19
2023-08-13T03:41:17.970Z,101162.50
2023-08-13T03:43:45.165Z,101153.66
2023-08-13T03:46:12.437Z,101156.34
2023-08-13T03:48:39.716Z,101152.28
2023-08-13T03:51:07.062Z,101149.50
2023-08-13T03:53:34.301Z,101157.19
2023-08-13T03:56:01.575Z,101148.72
2023-08-13T03:58:29.438Z,101151.03
2023-08-13T04:00:56.686Z,101147.69
2023-08-13T04:03:26.350Z,101150.78
2023-08-13T04:05:54.536Z,101151.53
2023-08-13T04:08:21.865Z,101159.25
2023-08-13T04:10:53.769Z,101155.47
2023-08-13T04:13:21.066Z,101155.66
2023-08-13T04:15:48.448Z,101156.22
2023-08-13T04:18:15.758Z,101156.84
2023-08-13T04:20:43.571Z,101167.38
2023-08-13T04:23:11.097Z,101164.00
2023-08-13T04:25:38.425Z,101167.97
2023-08-13T04:28:06.566Z,101169.44
2023-08-13T04:30:33.830Z,101162.28
2023-08-13T04:33:03.780Z,101153.47
2023-08-13T04:35:31.093Z,101160.34
2023-08-13T04:37:58.341Z,101156.84
2023-08-13T04:40:25.701Z,101160.44
2023-08-13T04:42:53.208Z,101152.75
2023-08-13T04:45:20.601Z,101160.19
2023-08-13T04:47:47.873Z,101158.88
2023-08-13T04:50:15.636Z,101163.34
2023-08-13T04:52:43.262Z,101161.78
2023-08-13T04:55:10.764Z,101163.69
2023-08-13T04:57:37.987Z,101165.03
2023-08-13T05:00:06.283Z,101157.84
2023-08-13T05:02:33.498Z,101156.13
2023-08-13T05:05:00.818Z,101164.00
2023-08-13T05:07:28.041Z,101162.75
2023-08-13T05:09:55.281Z,101160.31
2023-08-13T05:12:22.488Z,101157.13
2023-08-13T05:14:49.702Z,101156.94
2023-08-13T05:17:19.802Z,101155.91
2023-08-13T05:19:47.854Z,101157.84
2023-08-13T05:22:15.965Z,101156.25
2023-08-13T05:24:43.969Z,101151.25
2023-08-13T05:27:11.174Z,101164.81
2023-08-13T05:29:39.116Z,101164.56
2023-08-13T05:32:06.724Z,101163.50
2023-08-13T05:34:34.092Z,101163.00
2023-08-13T05:37:01.317Z,101169.47
2023-08-13T05:39:28.556Z,101162.91
2023-08-13T05:41:55.781Z,101167.13
2023-08-13T05:44:23.451Z,101162.34
2023-08-13T05:46:50.674Z,101163.84
2023-08-13T05:49:17.914Z,101165.94
2023-08-13T05:51:45.228Z,101164.16
2023-08-13T05:54:13.568Z,101165.91
2023-08-13T05:56:41.231Z,101169.91
2023-08-13T05:59:08.477Z,101169.22
2023-08-13T06:01:35.704Z,101166.06
2023-08-13T06:04:03.499Z,101163.72
2023-08-13T06:06:30.772Z,101169.56
2023-08-13T06:08:57.982Z,101174.69
2023-08-13T06:11:25.228Z,101180.50
2023-08-13T06:13:52.610Z,101171.38
2023-08-13T06:16:20.458Z,101170.84
2023-08-13T06:18:48.214Z,101179.31
2023-08-13T06:21:15.487Z,101178.69
2023-08-13T06:23:42.678Z,101173.44
2023-08-13T06:26:09.915Z,101172.03
2023-08-13T06:28:38.584Z,101183.25
2023-08-13T06:31:06.562Z,101179.13
2023-08-13T06:33:33.945Z,101185.84
2023-08-13T06:36:01.338Z,101183.59
2023-08-13T06:38:30.006Z,101186.84
2023-08-13T06:41:03.874Z,101176.84
2023-08-13T06:43:31.122Z,101181.94
2023-08-13T06:45:58.318Z,101187.00
2023-08-13T06:48:27.464Z,101175.16
2023-08-13T06:50:58.994Z,101188.84
2023-08-13T06:53:27.236Z,101193.84
2023-08-13T06:55:54.812Z,101188.97
2023-08-13T06:58:22.051Z,101190.72
2023-08-13T07:00:49.235Z,101198.41
2023-08-13T07:03:16.448Z,101188.19
2023-08-13T07:05:43.679Z,101185.50
2023-08-13T07:08:11.302Z,101190.84
2023-08-13T07:10:39.928Z,101190.56
2023-08-13T07:13:07.889Z,101190.81
2023-08-13T07:15:35.146Z,101192.72
2023-08-13T07:18:02.801Z,101196.75
2023-08-13T07:20:30.101Z,101196.06
2023-08-13T07:22:59.585Z,101192.66
2023-08-13T07:25:26.877Z,101191.94
2023-08-13T07:27:55.137Z,101198.13
2023-08-13T07:30:22.493Z,101189.66
2023-08-13T07:32:49.797Z,101191.38
2023-08-13T07:35:17.081Z,101205.13
2023-08-13T07:37:44.299Z,101198.22
2023-08-13T07:40:13.611Z,101196.81
2023-08-13T07:42:42.568Z,101190.09
2023-08-13T07:45:12.439Z,101195.59
2023-08-13T07:47:40.772Z,101194.78
2023-08-13T07:50:08.915Z,101202.44
2023-08-13T07:52:36.451Z,101187.19
2023-08-13T07:55:04.575Z,101189.53
2023-08-13T07:57:32.284Z,101177.00
2023-08-13T07:59:59.977Z,101188.03
2023-08-13T08:02:27.249Z,101171.78
2023-08-13T08:04:55.194Z,101179.66
2023-08-13T08:07:23.062Z,101170.50
2023-08-13T08:09:50.329Z,101158.19
2023-08-13T08:12:17.806Z,101156.50
2023-08-13T08:14:45.338Z,101154.63
2023-08-13T08:17:12.571Z,101169.66
2023-08-13T08:19:39.794Z,101169.81
2023-08-13T08:22:06.995Z,101158.59
2023-08-13T08:24:34.287Z,101166.44
2023-08-13T08:27:01.529Z,101164.69
2023-08-13T08:29:28.698Z,101162.81
2023-08-13T08:31:55.916Z,101160.34
2023-08-13T08:34:23.093Z,101163.75
2023-08-13T08:36:50.317Z,101165.94
2023-08-13T08:39:17.503Z,101153.94
2023-08-13T08:41:47.876Z,101167.63
2023-08-13T08:44:22.079Z,101159.09
2023-08-13T08:46:54.899Z,101157.78
2023-08-13T08:49:22.931Z,101156.81
2023-08-13T08:51:51.604Z,101148.16
2023-08-13T08:54:19.704Z,101146.50
2023-08-13T08:56:46.893Z,101134.69
2023-08-13T08:59:14.212Z,101141.38
2023-08-13T09:01:41.953Z,101144.03
2023-08-13T09:04:10.159Z,101141.44
2023-08-13T09:06:55.399Z,101139.94
2023-08-13T09:09:23.503Z,101137.50
2023-08-13T09:11:52.144Z,101135.94
2023-08-13T09:14:20.465Z,101135.16
2023-08-13T09:16:52.722Z,101131.88
2023-08-13T09:19:24.949Z,101134.88
2023-08-13T09:22:02.863Z,101125.97
2023-08-13T09:24:37.752Z,101126.53
2023-08-13T09:27:07.636Z,101136.59
2023-08-13T09:29:37.950Z,101140.16
2023-08-13T09:32:06.216Z,101130.72
2023-08-13T09:34:34.821Z,101130.88
2023-08-13T09:37:02.596Z,101133.41
2023-08-13T09:39:34.865Z,101123.03
2023-08-13T09:42:06.799Z,101125.81
2023-08-13T09:44:34.250Z,101117.19
2023-08-13T09:47:04.630Z,101116.34
2023-08-13T09:49:34.915Z,101130.63
2023-08-13T09:52:10.636Z,101121.63
2023-08-13T09:54:49.859Z,101119.50
2023-08-13T09:57:18.554Z,101111.31
2023-08-13T09:59:46.718Z,101118.13
2023-08-13T10:02:16.152Z,101119.91
2023-08-13T10:04:43.790Z,101111.16
2023-08-13T10:07:13.576Z,101120.16
2023-08-13T10:09:41.874Z,101120.31
2023-08-13T10:12:11.368Z,101118.75
2023-08-13T10:14:39.924Z,101113.63
2023-08-13T10:17:08.196Z,101119.19
2023-08-13T10:19:49.017Z,101114.88
2023-08-13T10:22:35.936Z,101112.06
2023-08-13T10:25:04.397Z,101108.84
2023-08-13T10:27:36.922Z,101112.31
2023-08-13T10:30:14.210Z,101118.63
2023-08-13T10:32:55.316Z,101121.59
2023-08-13T10:35:40.245Z,101122.69
2023-08-13T10:38:11.218Z,101119.50
2023-08-13T10:41:00.808Z,101113.97
2023-08-13T10:43:28.036Z,101113.97
2023-08-13T10:45:56.236Z,101117.94
2023-08-13T10:48:30.923Z,101113.06
2023-08-13T10:50:59.155Z,101124.03
2023-08-13T10:53:28.738Z,101113.50
2023-08-13T10:56:01.473Z,101113.94
2023-08-13T10:58:38.304Z,101108.03
2023-08-13T11:01:14.504Z,101109.91
2023-08-13T11:03:54.228Z,101110.03
2023-08-13T11:06:24.012Z,101107.44
2023-08-13T11:08:52.198Z,101108.50
2023-08-13T11:11:20.990Z,101106.19
2023-08-13T11:13:50.263Z,101113.50
2023-08-13T11:16:17.941Z,101107.09
2023-08-13T11:18:45.739Z,101098.63
2023-08-13T11:21:13.295Z,101088.81
2023-08-13T11:23:40.725Z,101109.44
2023-08-13T11:26:09.330Z,101102.16
2023-08-13T11:28:36.882Z,101100.28
2023-08-13T11:31:04.132Z,101098.34
2023-08-13T11:33:31.596Z,101095.47
2023-08-13T11:35:59.923Z,101088.13
2023-08-13T11:38:27.657Z,101097.97
2023-08-13T11:40:55.660Z,101102.25
2023-08-13T11:43:23.598Z,101096.72
2023-08-13T11:45:51.272Z,101092.81
2023-08-13T11:48:22.049Z,101093.78
2023-08-13T11:51:09.016Z,101081.41
2023-08-13T11:53:43.545Z,101081.47
2023-08-13T11:56:16.117Z,101078.75
2023-08-13T11:58:43.649Z,101083.72
2023-08-13T12:01:12.854Z,101081.66
2023-08-13T12:03:43.899Z,101082.59
2023-08-13T12:06:12.388Z,101077.91
2023-08-13T12:08:46.549Z,101078.41
2023-08-13T12:11:13.924Z,101065.75
2023-08-13T12:13:42.933Z,101081.28
2023-08-13T12:16:10.419Z,101065.34
2023-08-13T12:18:38.088Z,101059.97
2023-08-13T12:21:05.316Z,101059.47
2023-08-13T12:23:32.691Z,101057.41
2023-08-13T12:26:03.195Z,101061.03
2023-08-13T12:28:30.761Z,101055.75
2023-08-13T12:30:58.186Z,101050.47
2023-08-13T12:33:25.440Z,101064.97
2023-08-13T12:35:52.656Z,101045.94
2023-08-13T12:38:19.920Z,101042.72
2023-08-13T12:40:47.229Z,101044.56
2023-08-13T12:43:14.411Z,101046.75
2023-08-13T12:45:41.669Z,101043.53
2023-08-13T12:48:08.907Z,101034.47
2023-08-13T12:50:36.340Z,101040.84
2023-08-13T12:53:04.493Z,101040.72
2023-08-13T12:55:31.929Z,101035.97
2023-08-13T12:57:59.155Z,101040.91
2023-08-13T13:00:26.361Z,101038.06
2023-08-13T13:02:53.623Z,101038.56
2023-08-13T13:05:21.066Z,101051.25
2023-08-13T13:07:48.464Z,101040.63
2023-08-13T13:10:15.828Z,101043.78
2023-08-13T13:12:43.135Z,101041.09
2023-08-13T13:15:10.750Z,101033.22
2023-08-13T13:17:37.977Z,101043.31
2023-08-13T13:20:11.809Z,101040.03
2023-08-13T13:22:42.939Z,101039.31
2023-08-13T13:25:14.805Z,101039.84
2023-08-13T13:27:43.007Z,101034.69
2023-08-13T13:30:12.566Z,101023.00
2023-08-13T13:32:40.193Z,101030.47
2023-08-13T13:35:08.506Z,101025.56
2023-08-13T13:37:35.731Z,101023.50
2023-08-13T13:40:05.136Z,101019.88
2023-08-13T13:42:32.617Z,101019.31
2023-08-13T13:44:59.906Z,101021.88
2023-08-13T13:47:27.220Z,101018.69
2023-08-13T13:49:54.505Z,101012.22
2023-08-13T13:52:22.024Z,101016.75
2023-08-13T13:54:51.918Z,101018.81
2023-08-13T13:57:19.926Z,101015.41
2023-08-13T13:59:47.184Z,101015.75
2023-08-13T14:02:14.627Z,101010.94
2023-08-13T14:04:42.262Z,101003.97
2023-08-13T14:07:09.507Z,101000.88
2023-08-13T14:09:37.019Z,101005.44
2023-08-13T14:12:04.495Z,100997.19
2023-08-13T14:14:31.700Z,100998.06
2023-08-13T14:16:59.043Z,100992.44
2023-08-13T14:19:26.250Z,100990.00
2023-08-13T14:21:53.447Z,100989.75
2023-08-13T14:24:20.698Z,100993.22
2023-08-13T14:26:50.495Z,100979.41
2023-08-13T14:29:20.634Z,100984.38
2023-08-13T14:31:48.077Z,100978.50
2023-08-13T14:34:15.362Z,100977.19
2023-08-13T14:36:42.820Z,100974.00
2023-08-13T14:39:10.116Z,100974.78
2023-08-13T14:41:37.534Z,100974.78
2023-08-13T14:44:05.125Z,100980.56
2023-08-13T14:46:34.658Z,100980.97
2023-08-13T14:49:02.049Z,100985.75
2023-08-13T14:51:29.473Z,100977.81
2023-08-13T14:53:56.875Z,100975.31
2023-08-13T14:56:24.198Z,100979.50
2023-08-13T14:58:51.660Z,100979.63
2023-08-13T15:01:18.943Z,100977.56
2023-08-13T15:03:46.444Z,100983.66
2023-08-13T15:06:13.782Z,100975.72
2023-08-13T15:08:41.033Z,100969.72
2023-08-13T15:11:08.216Z,100978.75
2023-08-13T15:13:35.433Z,100968.53
2023-08-13T15:16:02.957Z,100969.38
2023-08-13T15:18:30.220Z,100971.84
2023-08-13T15:20:57.430Z,100981.03
2023-08-13T15:23:24.669Z,100969.94
2023-08-13T15:28:21.959Z,100972.25
2023-08-13T15:30:57.282Z,100969.78
2023-08-13T15:33:26.098Z,100964.00
2023-08-13T15:35:58.382Z,100972.97
2023-08-13T15:38:27.139Z,100971.78
2023-08-13T15:40:54.741Z,100967.78
2023-08-13T15:43:23.225Z,100964.88
2023-08-13T15:45:50.497Z,100964.94
2023-08-13T15:48:17.903Z,100967.75
2023-08-13T15:50:46.492Z,100960.16
2023-08-13T15:53:14.059Z,100964.28
2023-08-13T15:55:42.429Z,100958.47
2023-08-13T15:58:11.044Z,100967.97
2023-08-13T16:00:39.693Z,100953.06
2023-08-13T16:03:07.615Z,100955.16
2023-08-13T16:05:35.332Z,100953.47
2023-08-13T16:08:04.787Z,100955.88
2023-08-13T16:10:35.676Z,100955.69
2023-08-13T16:13:04.340Z,100950.66
2023-08-13T16:15:31.780Z,100948.13
2023-08-13T16:17:59.091Z,100956.94
2023-08-13T16:20:26.423Z,100953.63
2023-08-13T16:22:53.767Z,100948.44
2023-08-13T16:25:21.222Z,100959.59
2023-08-13T16:27:48.482Z,100944.81
2023-08-13T16:30:16.173Z,100942.97
2023-08-13T16:32:43.780Z,100943.00
2023-08-13T16:35:11.389Z,100944.66
2023-08-13T16:37:38.665Z,100946.44
2023-08-13T16:40:07.063Z,100941.69
2023-08-13T16:42:46.873Z,100942.63
2023-08-13T16:45:18.080Z,100948.72
2023-08-13T16:47:45.484Z,100942.34
2023-08-13T16:50:15.399Z,100940.66
2023-08-13T16:52:43.164Z,100942.66
2023-08-13T16:55:10.858Z,100934.66
2023-08-13T16:57:38.994Z,100934.84
2023-08-13T17:00:13.012Z,100936.72
2023-08-13T17:02:45.618Z,100938.53
2023-08-13T17:05:13.796Z,100928.47
2023-08-13T17:07:41.284Z,100937.41
2023-08-13T17:10:09.736Z,100938.47
2023-08-13T17:12:36.976Z,100930.03
2023-08-13T17:15:21.324Z,100934.91
2023-08-13T17:17:51.047Z,100935.19
2023-08-13T17:20:21.286Z,100935.91
2023-08-13T17:22:49.888Z,100933.44
2023-08-13T17:25:17.358Z,100946.38
2023-08-13T17:27:45.609Z,100943.72
2023-08-13T17:30:13.470Z,100933.44
2023-08-13T17:32:40.720Z,100934.97
2023-08-13T17:35:08.133Z,100931.78
2023-08-13T17:37:36.910Z,100928.91
2023-08-13T17:40:06.168Z,100928.28
2023-08-13T17:42:33.709Z,100934.53
2023-08-13T17:45:00.925Z,100929.22
2023-08-13T17:47:29.616Z,100932.00
2023-08-13T17:49:58.192Z,100933.78
2023-08-13T17:52:28.716Z,100926.03
2023-08-13T17:54:55.998Z,100934.78
2023-08-13T17:57:23.306Z,100933.22
2023-08-13T17:59:50.867Z,100936.72
2023-08-13T18:02:18.137Z,100929.84
2023-08-13T18:04:47.363Z,100930.75
2023-08-13T18:07:14.784Z,100927.44
2023-08-13T18:09:43.298Z,100931.72
2023-08-13T18:12:10.737Z,100935.94
2023-08-13T18:14:37.928Z,100937.03
2023-08-13T18:17:05.254Z,100939.53
2023-08-13T18:19:32.466Z,100953.38
2023-08-13T18:21:59.687Z,100955.44
2023-08-13T18:24:26.943Z,100957.19
2023-08-13T18:26:54.311Z,100957.28
2023-08-13T18:29:21.884Z,100953.72
2023-08-13T18:31:49.268Z,100960.50
2023-08-13T18:34:17.019Z,100958.78
2023-08-13T18:36:44.220Z,100958.88
2023-08-13T18:39:11.434Z,100962.19
2023-08-13T18:41:38.667Z,100969.06
2023-08-13T18:44:06.562Z,100970.84
2023-08-13T18:46:33.921Z,100977.69
2023-08-13T18:49:01.161Z,100985.44
2023-08-13T18:51:28.414Z,100982.91
2023-08-13T18:53:57.534Z,100983.72
2023-08-13T18:56:26.612Z,100981.19
2023-08-13T18:58:53.861Z,100983.72
2023-08-13T19:01:21.208Z,100989.63
2023-08-13T19:03:49.669Z,100988.03
2023-08-13T19:06:17.303Z,100994.84
2023-08-13T19:08:44.637Z,100995.63
2023-08-13T19:11:11.887Z,101000.72
2023-08-13T19:13:39.433Z,101005.00
2023-08-13T19:16:06.697Z,101003.31
2023-08-13T19:18:34.020Z,100996.50
2023-08-13T19:21:01.297Z,101012.69
2023-08-13T19:23:28.491Z,101010.97
2023-08-13T19:25:55.765Z,101013.53
2023-08-13T19:28:22.939Z,101024.59
2023-08-13T19:30:50.161Z,101018.66
2023-08-13T19:33:17.458Z,101014.38
2023-08-13T19:35:45.166Z,101021.22
2023-08-13T19:38:12.477Z,101016.13
2023-08-13T19:40:40.791Z,101023.75
2023-08-13T19:43:08.226Z,101021.22
2023-08-13T19:45:35.711Z,101015.28
2023-08-13T19:48:03.610Z,101019.53
2023-08-13T19:50:32.959Z,101020.28
2023-08-13T19:53:00.481Z,101022.84
2023-08-13T19:55:29.259Z,101017.72
2023-08-13T19:57:57.151Z,101015.25
2023-08-13T20:00:24.641Z,101021.94
2023-08-13T20:02:51.968Z,101024.41
2023-08-13T20:05:19.251Z,101017.63
2023-08-13T20:07:46.457Z,101018.34
2023-08-13T20:10:13.709Z,101015.91
2023-08-13T20:12:41.237Z,101018.19
2023-08-13T20:15:08.950Z,101013.38
2023-08-13T20:17:36.716Z,101012.41
2023-08-13T20:20:04.521Z,101024.19
2023-08-13T20:22:31.740Z,101019.19
2023-08-13T20:24:58.975Z,101016.81
2023-08-13T20:27:26.195Z,101029.94
2023-08-13T20:29:53.393Z,101020.97
2023-08-13T20:32:20.793Z,101026.06
2023-08-13T20:34:51.545Z,101021.84
2023-08-13T20:37:19.110Z,101020.16
2023-08-13T20:39:46.367Z,101014.19
2023-08-13T20:42:13.568Z,101008.22
2023-08-13T20:44:40.849Z,101015.09
2023-08-13T20:47:09.624Z,101011.50
2023-08-13T20:49:36.986Z,101008.13
2023-08-13T20:52:06.012Z,101015.69
2023-08-13T20:54:33.648Z,101016.53
2023-08-13T20:57:00.917Z,101018.41
2023-08-13T20:59:28.157Z,101018.34
2023-08-13T21:01:55.387Z,101017.50
2023-08-13T21:04:22.679Z,101020.06
2023-08-13T21:06:49.889Z,101027.66
2023-08-13T21:09:17.127Z,101023.38
2023-08-13T21:11:44.339Z,101021.84
2023-08-13T21:14:11.551Z,101020.78
2023-08-13T21:16:38.986Z,101020.75
2023-08-13T21:19:06.310Z,101019.84
2023-08-13T21:21:33.502Z,101022.44
2023-08-13T21:24:00.768Z,101016.44
2023-08-13T21:26:27.989Z,101017.41
2023-08-13T21:28:55.180Z,101011.22
2023-08-13T21:31:22.553Z,101011.06
2023-08-13T21:33:49.816Z,101019.22
2023-08-13T21:36:16.992Z,101005.69
2023-08-13T21:38:44.232Z,101016.72
2023-08-13T21:41:11.487Z,101014.31
2023-08-13T21:43:38.755Z,101016.38
2023-08-13T21:46:06.109Z,101015.84
2023-08-13T21:48:33.364Z,101003.25
2023-08-13T21:51:00.646Z,101001.50
2023-08-13T21:53:27.843Z,101019.13
2023-08-13T21:55:55.774Z,101011.44
2023-08-13T21:58:23.069Z,101008.97
2023-08-13T22:00:50.510Z,101016.44
2023-08-13T22:03:19.112Z,101007.91
2023-08-13T22:05:46.511Z,101008.13
2023-08-13T22:08:14.009Z,101009.19
2023-08-13T22:10:42.974Z,101015.09
2023-08-13T22:13:10.609Z,101021.09
2023-08-13T22:15:37.897Z,101023.84
2023-08-13T22:18:05.555Z,101040.03
2023-08-13T22:20:33.333Z,101039.56
2023-08-13T22:23:04.031Z,101041.13
2023-08-13T22:25:31.302Z,101042.78
2023-08-13T22:27:58.562Z,101039.31
2023-08-13T22:30:25.826Z,101046.13
2023-08-13T22:32:53.951Z,101052.84
2023-08-13T22:35:21.616Z,101058.13
2023-08-13T22:37:48.836Z,101052.94
2023-08-13T22:40:16.121Z,101055.59
2023-08-13T22:42:43.311Z,101057.09
2023-08-13T22:45:11.310Z,101063.69
2023-08-13T22:47:38.607Z,101048.66
2023-08-13T22:50:07.065Z,101065.69
2023-08-13T22:52:34.590Z,101058.63
2023-08-13T22:55:01.835Z,101055.38
2023-08-13T22:57:29.293Z,101057.69
2023-08-13T22:59:56.600Z,101058.75
2023-08-13T23:02:23.824Z,101057.63
2023-08-13T23:04:51.223Z,101065.75
2023-08-13T23:07:18.422Z,101051.78
2023-08-13T23:09:45.660Z,101053.44
2023-08-13T23:12:12.867Z,101050.94
2023-08-13T23:14:40.420Z,101057.53
2023-08-13T23:17:07.771Z,101063.91
2023-08-13T23:19:35.917Z,101056.44
2023-08-13T23:22:03.142Z,101061.41
2023-08-13T23:24:30.371Z,101057.44
2023-08-13T23:26:57.546Z,101053.06
2023-08-13T23:29:24.727Z,101047.81
2023-08-13T23:31:51.972Z,101041.19
2023-08-13T23:34:19.272Z,101048.25
2023-08-13T23:36:47.546Z,101050.13
2023-08-13T23:39:14.771Z,101042.97
2023-08-13T23:41:48.555Z,101048.56
2023-08-13T23:44:16.629Z,101042.91
2023-08-13T23:46:43.852Z,101046.63
2023-08-13T23:49:11.233Z,101037.53
2023-08-13T23:51:38.445Z,101036.59
2023-08-13T23:54:05.668Z,101040.88
2023-08-13T23:56:32.991Z,101044.31
2023-08-13T23:59:00.178Z,101042.66
